sensor_id;sensor_type;location;lat;lon;timestamp;P1;durP1;ratioP1;P2;durP2;ratioP2
25988;SDS011;13778;48.236;9.894;2024-02-23T00:00:17;2.25;;;0.60;;
25988;SDS011;13778;48.236;9.894;2024-02-23T00:03:08;2.45;;;0.43;;
25988;SDS011;13778;48.236;9.894;2024-02-23T00:06:00;0.52;;;0.40;;
25988;SDS011;13778;48.236;9.894;2024-02-23T00:08:50;1.92;;;0.50;;
25988;SDS011;13778;48.236;9.894;2024-02-23T00:11:44;1.90;;;0.63;;
25988;SDS011;13778;48.236;9.894;2024-02-23T00:17:25;0.75;;;0.70;;
25988;SDS011;13778;48.236;9.894;2024-02-23T00:20:15;0.30;;;0.30;;
25988;SDS011;13778;48.236;9.894;2024-02-23T00:23:06;0.50;;;0.50;;
25988;SDS011;13778;48.236;9.894;2024-02-23T00:25:57;0.70;;;0.60;;
25988;SDS011;13778;48.236;9.894;2024-02-23T00:28:48;0.50;;;0.45;;
25988;SDS011;13778;48.236;9.894;2024-02-23T00:31:39;1.75;;;0.50;;
25988;SDS011;13778;48.236;9.894;2024-02-23T00:34:30;1.30;;;0.63;;
25988;SDS011;13778;48.236;9.894;2024-02-23T00:37:21;0.40;;;0.40;;
25988;SDS011;13778;48.236;9.894;2024-02-23T00:40:11;1.85;;;0.60;;
25988;SDS011;13778;48.236;9.894;2024-02-23T00:43:02;1.80;;;0.50;;
25988;SDS011;13778;48.236;9.894;2024-02-23T00:45:54;0.82;;;0.50;;
25988;SDS011;13778;48.236;9.894;2024-02-23T00:51:35;2.72;;;0.57;;
25988;SDS011;13778;48.236;9.894;2024-02-23T00:54:25;0.68;;;0.40;;
25988;SDS011;13778;48.236;9.894;2024-02-23T00:57:15;1.75;;;0.60;;
25988;SDS011;13778;48.236;9.894;2024-02-23T01:00:08;1.27;;;0.70;;
25988;SDS011;13778;48.236;9.894;2024-02-23T01:03:00;1.05;;;0.60;;
25988;SDS011;13778;48.236;9.894;2024-02-23T01:05:51;0.32;;;0.32;;
25988;SDS011;13778;48.236;9.894;2024-02-23T01:08:41;0.70;;;0.38;;
25988;SDS011;13778;48.236;9.894;2024-02-23T01:11:33;1.15;;;0.40;;
25988;SDS011;13778;48.236;9.894;2024-02-23T01:14:23;2.72;;;0.40;;
25988;SDS011;13778;48.236;9.894;2024-02-23T01:17:14;5.05;;;0.40;;
25988;SDS011;13778;48.236;9.894;2024-02-23T01:20:07;0.50;;;0.50;;
25988;SDS011;13778;48.236;9.894;2024-02-23T01:22:57;0.40;;;0.30;;
25988;SDS011;13778;48.236;9.894;2024-02-23T01:25:48;2.05;;;0.80;;
25988;SDS011;13778;48.236;9.894;2024-02-23T01:28:38;2.65;;;0.40;;
25988;SDS011;13778;48.236;9.894;2024-02-23T01:31:29;0.38;;;0.35;;
25988;SDS011;13778;48.236;9.894;2024-02-23T01:34:19;0.50;;;0.30;;
25988;SDS011;13778;48.236;9.894;2024-02-23T01:37:11;1.73;;;0.30;;
25988;SDS011;13778;48.236;9.894;2024-02-23T01:43:00;0.30;;;0.30;;
25988;SDS011;13778;48.236;9.894;2024-02-23T01:45:50;0.47;;;0.28;;
25988;SDS011;13778;48.236;9.894;2024-02-23T01:48:41;1.45;;;0.32;;
25988;SDS011;13778;48.236;9.894;2024-02-23T01:51:31;0.20;;;0.20;;
25988;SDS011;13778;48.236;9.894;2024-02-23T01:54:23;0.20;;;0.20;;
25988;SDS011;13778;48.236;9.894;2024-02-23T01:57:14;0.10;;;0.10;;
25988;SDS011;13778;48.236;9.894;2024-02-23T02:00:06;0.20;;;0.20;;
25988;SDS011;13778;48.236;9.894;2024-02-23T02:05:47;0.20;;;0.20;;
25988;SDS011;13778;48.236;9.894;2024-02-23T02:08:38;0.45;;;0.30;;
25988;SDS011;13778;48.236;9.894;2024-02-23T02:11:30;1.67;;;0.50;;
25988;SDS011;13778;48.236;9.894;2024-02-23T02:17:10;0.17;;;0.17;;
25988;SDS011;13778;48.236;9.894;2024-02-23T02:20:02;0.30;;;0.30;;
25988;SDS011;13778;48.236;9.894;2024-02-23T02:22:53;0.30;;;0.30;;
25988;SDS011;13778;48.236;9.894;2024-02-23T02:25:44;0.20;;;0.20;;
25988;SDS011;13778;48.236;9.894;2024-02-23T02:28:36;0.35;;;0.35;;
25988;SDS011;13778;48.236;9.894;2024-02-23T02:31:27;0.20;;;0.20;;
25988;SDS011;13778;48.236;9.894;2024-02-23T02:34:17;0.20;;;0.20;;
25988;SDS011;13778;48.236;9.894;2024-02-23T02:37:08;3.42;;;0.40;;
25988;SDS011;13778;48.236;9.894;2024-02-23T02:39:59;0.30;;;0.30;;
25988;SDS011;13778;48.236;9.894;2024-02-23T02:42:49;0.73;;;0.28;;
25988;SDS011;13778;48.236;9.894;2024-02-23T02:45:41;0.20;;;0.20;;
25988;SDS011;13778;48.236;9.894;2024-02-23T02:48:32;2.55;;;0.38;;
25988;SDS011;13778;48.236;9.894;2024-02-23T02:51:23;0.30;;;0.30;;
25988;SDS011;13778;48.236;9.894;2024-02-23T02:54:13;0.20;;;0.20;;
25988;SDS011;13778;48.236;9.894;2024-02-23T02:57:04;0.75;;;0.30;;
25988;SDS011;13778;48.236;9.894;2024-02-23T02:59:54;0.30;;;0.30;;
25988;SDS011;13778;48.236;9.894;2024-02-23T03:02:46;0.38;;;0.30;;
25988;SDS011;13778;48.236;9.894;2024-02-23T03:05:36;0.20;;;0.20;;
25988;SDS011;13778;48.236;9.894;2024-02-23T03:08:27;0.57;;;0.20;;
25988;SDS011;13778;48.236;9.894;2024-02-23T03:11:17;0.50;;;0.40;;
25988;SDS011;13778;48.236;9.894;2024-02-23T03:14:08;0.30;;;0.30;;
25988;SDS011;13778;48.236;9.894;2024-02-23T03:16:59;0.20;;;0.20;;
25988;SDS011;13778;48.236;9.894;2024-02-23T03:19:51;0.28;;;0.25;;
25988;SDS011;13778;48.236;9.894;2024-02-23T03:25:31;0.30;;;0.30;;
25988;SDS011;13778;48.236;9.894;2024-02-23T03:28:22;1.45;;;0.40;;
25988;SDS011;13778;48.236;9.894;2024-02-23T03:31:12;1.65;;;0.32;;
25988;SDS011;13778;48.236;9.894;2024-02-23T03:34:02;0.75;;;0.35;;
25988;SDS011;13778;48.236;9.894;2024-02-23T03:36:54;0.30;;;0.30;;
25988;SDS011;13778;48.236;9.894;2024-02-23T03:39:44;0.50;;;0.30;;
25988;SDS011;13778;48.236;9.894;2024-02-23T03:42:37;0.30;;;0.30;;
25988;SDS011;13778;48.236;9.894;2024-02-23T03:45:27;1.33;;;1.30;;
25988;SDS011;13778;48.236;9.894;2024-02-23T03:48:18;2.42;;;0.68;;
25988;SDS011;13778;48.236;9.894;2024-02-23T03:51:09;0.57;;;0.57;;
25988;SDS011;13778;48.236;9.894;2024-02-23T03:54:00;1.70;;;1.60;;
25988;SDS011;13778;48.236;9.894;2024-02-23T03:56:52;2.10;;;1.88;;
25988;SDS011;13778;48.236;9.894;2024-02-23T03:59:50;1.70;;;0.68;;
25988;SDS011;13778;48.236;9.894;2024-02-23T04:02:41;0.90;;;0.90;;
25988;SDS011;13778;48.236;9.894;2024-02-23T04:05:31;3.97;;;0.80;;
25988;SDS011;13778;48.236;9.894;2024-02-23T04:08:22;0.90;;;0.60;;
25988;SDS011;13778;48.236;9.894;2024-02-23T04:11:14;2.03;;;0.70;;
25988;SDS011;13778;48.236;9.894;2024-02-23T04:14:04;3.40;;;0.60;;
25988;SDS011;13778;48.236;9.894;2024-02-23T04:16:55;2.63;;;1.38;;
25988;SDS011;13778;48.236;9.894;2024-02-23T04:19:45;0.63;;;0.40;;
25988;SDS011;13778;48.236;9.894;2024-02-23T04:22:36;0.40;;;0.40;;
25988;SDS011;13778;48.236;9.894;2024-02-23T04:25:27;1.13;;;0.70;;
25988;SDS011;13778;48.236;9.894;2024-02-23T04:28:19;2.13;;;0.30;;
25988;SDS011;13778;48.236;9.894;2024-02-23T04:31:09;0.55;;;0.43;;
25988;SDS011;13778;48.236;9.894;2024-02-23T04:33:59;1.00;;;0.70;;
25988;SDS011;13778;48.236;9.894;2024-02-23T04:36:50;0.30;;;0.30;;
25988;SDS011;13778;48.236;9.894;2024-02-23T04:39:43;0.90;;;0.70;;
25988;SDS011;13778;48.236;9.894;2024-02-23T04:42:33;1.35;;;0.68;;
25988;SDS011;13778;48.236;9.894;2024-02-23T04:45:25;0.75;;;0.65;;
25988;SDS011;13778;48.236;9.894;2024-02-23T04:48:15;3.15;;;0.60;;
25988;SDS011;13778;48.236;9.894;2024-02-23T04:51:06;1.58;;;1.15;;
25988;SDS011;13778;48.236;9.894;2024-02-23T04:53:59;0.80;;;0.80;;
25988;SDS011;13778;48.236;9.894;2024-02-23T04:56:49;2.15;;;1.20;;
25988;SDS011;13778;48.236;9.894;2024-02-23T04:59:40;2.30;;;1.08;;
25988;SDS011;13778;48.236;9.894;2024-02-23T05:02:32;1.48;;;0.85;;
25988;SDS011;13778;48.236;9.894;2024-02-23T05:05:24;1.58;;;1.20;;
25988;SDS011;13778;48.236;9.894;2024-02-23T05:08:14;2.97;;;0.90;;
25988;SDS011;13778;48.236;9.894;2024-02-23T05:11:05;1.50;;;0.80;;
25988;SDS011;13778;48.236;9.894;2024-02-23T05:13:55;0.77;;;0.77;;
25988;SDS011;13778;48.236;9.894;2024-02-23T05:16:46;1.88;;;0.90;;
25988;SDS011;13778;48.236;9.894;2024-02-23T05:19:38;2.50;;;0.70;;
25988;SDS011;13778;48.236;9.894;2024-02-23T05:25:18;1.40;;;0.95;;
25988;SDS011;13778;48.236;9.894;2024-02-23T05:28:09;2.40;;;0.80;;
25988;SDS011;13778;48.236;9.894;2024-02-23T05:31:01;0.50;;;0.50;;
25988;SDS011;13778;48.236;9.894;2024-02-23T05:33:52;0.63;;;0.43;;
25988;SDS011;13778;48.236;9.894;2024-02-23T05:36:44;1.23;;;0.60;;
25988;SDS011;13778;48.236;9.894;2024-02-23T05:39:35;0.52;;;0.50;;
25988;SDS011;13778;48.236;9.894;2024-02-23T05:42:26;1.57;;;0.70;;
25988;SDS011;13778;48.236;9.894;2024-02-23T05:45:16;3.13;;;0.90;;
25988;SDS011;13778;48.236;9.894;2024-02-23T05:48:07;0.63;;;0.60;;
25988;SDS011;13778;48.236;9.894;2024-02-23T05:50:57;0.40;;;0.40;;
25988;SDS011;13778;48.236;9.894;2024-02-23T05:53:49;2.28;;;0.68;;
25988;SDS011;13778;48.236;9.894;2024-02-23T05:56:40;1.42;;;0.35;;
25988;SDS011;13778;48.236;9.894;2024-02-23T05:59:30;2.40;;;0.50;;
25988;SDS011;13778;48.236;9.894;2024-02-23T06:02:21;2.72;;;0.55;;
25988;SDS011;13778;48.236;9.894;2024-02-23T06:05:12;2.05;;;0.50;;
25988;SDS011;13778;48.236;9.894;2024-02-23T06:08:02;0.70;;;0.70;;
25988;SDS011;13778;48.236;9.894;2024-02-23T06:10:54;3.97;;;0.90;;
25988;SDS011;13778;48.236;9.894;2024-02-23T06:16:35;2.63;;;0.73;;
25988;SDS011;13778;48.236;9.894;2024-02-23T06:19:26;2.00;;;0.95;;
25988;SDS011;13778;48.236;9.894;2024-02-23T06:22:17;3.03;;;0.90;;
25988;SDS011;13778;48.236;9.894;2024-02-23T06:25:10;0.50;;;0.50;;
25988;SDS011;13778;48.236;9.894;2024-02-23T06:28:02;0.80;;;0.80;;
25988;SDS011;13778;48.236;9.894;2024-02-23T06:30:53;1.98;;;0.98;;
25988;SDS011;13778;48.236;9.894;2024-02-23T06:33:43;2.22;;;0.90;;
25988;SDS011;13778;48.236;9.894;2024-02-23T06:36:37;2.25;;;0.70;;
25988;SDS011;13778;48.236;9.894;2024-02-23T06:39:28;2.72;;;0.70;;
25988;SDS011;13778;48.236;9.894;2024-02-23T06:42:18;2.70;;;0.80;;
25988;SDS011;13778;48.236;9.894;2024-02-23T06:45:11;2.15;;;0.70;;
25988;SDS011;13778;48.236;9.894;2024-02-23T06:48:01;1.67;;;0.80;;
25988;SDS011;13778;48.236;9.894;2024-02-23T06:50:52;2.75;;;0.60;;
25988;SDS011;13778;48.236;9.894;2024-02-23T06:53:43;5.60;;;1.00;;
25988;SDS011;13778;48.236;9.894;2024-02-23T06:56:33;1.92;;;0.90;;
25988;SDS011;13778;48.236;9.894;2024-02-23T06:59:25;2.10;;;1.00;;
25988;SDS011;13778;48.236;9.894;2024-02-23T07:02:17;3.97;;;1.00;;
25988;SDS011;13778;48.236;9.894;2024-02-23T07:05:08;2.05;;;0.50;;
25988;SDS011;13778;48.236;9.894;2024-02-23T07:07:58;3.33;;;0.70;;
25988;SDS011;13778;48.236;9.894;2024-02-23T07:10:49;2.05;;;0.70;;
25988;SDS011;13778;48.236;9.894;2024-02-23T07:13:42;2.08;;;0.82;;
25988;SDS011;13778;48.236;9.894;2024-02-23T07:16:32;1.05;;;0.60;;
25988;SDS011;13778;48.236;9.894;2024-02-23T07:19:24;4.30;;;1.00;;
25988;SDS011;13778;48.236;9.894;2024-02-23T07:25:07;3.33;;;0.77;;
25988;SDS011;13778;48.236;9.894;2024-02-23T07:27:57;2.75;;;0.75;;
25988;SDS011;13778;48.236;9.894;2024-02-23T07:30:48;2.08;;;0.80;;
25988;SDS011;13778;48.236;9.894;2024-02-23T07:33:38;2.53;;;0.93;;
25988;SDS011;13778;48.236;9.894;2024-02-23T07:36:30;2.10;;;1.13;;
25988;SDS011;13778;48.236;9.894;2024-02-23T07:42:10;1.70;;;0.98;;
25988;SDS011;13778;48.236;9.894;2024-02-23T07:45:03;3.42;;;1.17;;
25988;SDS011;13778;48.236;9.894;2024-02-23T07:47:54;3.08;;;1.75;;
25988;SDS011;13778;48.236;9.894;2024-02-23T07:50:45;1.60;;;1.20;;
25988;SDS011;13778;48.236;9.894;2024-02-23T07:53:37;4.20;;;1.25;;
25988;SDS011;13778;48.236;9.894;2024-02-23T07:56:27;5.90;;;1.38;;
25988;SDS011;13778;48.236;9.894;2024-02-23T07:59:18;4.65;;;1.23;;
25988;SDS011;13778;48.236;9.894;2024-02-23T08:02:09;5.32;;;1.30;;
25988;SDS011;13778;48.236;9.894;2024-02-23T08:04:59;1.75;;;1.20;;
25988;SDS011;13778;48.236;9.894;2024-02-23T08:07:50;4.00;;;1.50;;
25988;SDS011;13778;48.236;9.894;2024-02-23T08:10:42;4.15;;;1.00;;
25988;SDS011;13778;48.236;9.894;2024-02-23T08:16:22;2.85;;;1.35;;
25988;SDS011;13778;48.236;9.894;2024-02-23T08:19:13;7.95;;;1.33;;
25988;SDS011;13778;48.236;9.894;2024-02-23T08:22:03;3.90;;;1.40;;
25988;SDS011;13778;48.236;9.894;2024-02-23T08:24:54;4.22;;;1.45;;
25988;SDS011;13778;48.236;9.894;2024-02-23T08:27:46;6.90;;;1.60;;
25988;SDS011;13778;48.236;9.894;2024-02-23T08:30:36;2.05;;;1.30;;
25988;SDS011;13778;48.236;9.894;2024-02-23T08:33:26;3.63;;;1.27;;
25988;SDS011;13778;48.236;9.894;2024-02-23T08:36:17;3.63;;;1.17;;
25988;SDS011;13778;48.236;9.894;2024-02-23T08:39:08;3.60;;;1.60;;
25988;SDS011;13778;48.236;9.894;2024-02-23T08:41:59;3.90;;;1.20;;
25988;SDS011;13778;48.236;9.894;2024-02-23T08:44:50;3.38;;;0.95;;
25988;SDS011;13778;48.236;9.894;2024-02-23T08:47:43;2.00;;;0.95;;
25988;SDS011;13778;48.236;9.894;2024-02-23T08:50:34;7.85;;;1.40;;
25988;SDS011;13778;48.236;9.894;2024-02-23T08:53:24;2.40;;;0.93;;
25988;SDS011;13778;48.236;9.894;2024-02-23T08:56:15;2.87;;;1.40;;
25988;SDS011;13778;48.236;9.894;2024-02-23T08:59:06;3.20;;;1.15;;
25988;SDS011;13778;48.236;9.894;2024-02-23T09:01:58;4.68;;;1.20;;
25988;SDS011;13778;48.236;9.894;2024-02-23T09:04:48;4.13;;;1.30;;
25988;SDS011;13778;48.236;9.894;2024-02-23T09:07:38;6.70;;;1.70;;
25988;SDS011;13778;48.236;9.894;2024-02-23T09:10:29;3.00;;;1.35;;
25988;SDS011;13778;48.236;9.894;2024-02-23T09:13:19;5.53;;;1.40;;
25988;SDS011;13778;48.236;9.894;2024-02-23T09:16:10;3.50;;;1.02;;
25988;SDS011;13778;48.236;9.894;2024-02-23T09:19:02;4.25;;;1.20;;
25988;SDS011;13778;48.236;9.894;2024-02-23T09:24:42;2.00;;;1.05;;
25988;SDS011;13778;48.236;9.894;2024-02-23T09:27:33;4.35;;;1.15;;
25988;SDS011;13778;48.236;9.894;2024-02-23T09:30:25;5.57;;;1.45;;
25988;SDS011;13778;48.236;9.894;2024-02-23T09:33:16;5.20;;;1.50;;
25988;SDS011;13778;48.236;9.894;2024-02-23T09:36:08;5.60;;;1.20;;
25988;SDS011;13778;48.236;9.894;2024-02-23T09:38:59;5.50;;;1.55;;
25988;SDS011;13778;48.236;9.894;2024-02-23T09:41:51;7.20;;;1.33;;
25988;SDS011;13778;48.236;9.894;2024-02-23T09:44:41;3.15;;;1.40;;
25988;SDS011;13778;48.236;9.894;2024-02-23T09:47:33;5.75;;;1.73;;
25988;SDS011;13778;48.236;9.894;2024-02-23T09:50:24;6.93;;;1.98;;
25988;SDS011;13778;48.236;9.894;2024-02-23T09:53:16;4.20;;;1.73;;
25988;SDS011;13778;48.236;9.894;2024-02-23T09:56:07;8.30;;;1.67;;
25988;SDS011;13778;48.236;9.894;2024-02-23T09:58:59;6.65;;;2.38;;
25988;SDS011;13778;48.236;9.894;2024-02-23T10:01:50;3.20;;;1.80;;
25988;SDS011;13778;48.236;9.894;2024-02-23T10:04:42;7.78;;;1.70;;
25988;SDS011;13778;48.236;9.894;2024-02-23T10:07:32;8.90;;;1.80;;
25988;SDS011;13778;48.236;9.894;2024-02-23T10:10:25;4.47;;;1.63;;
25988;SDS011;13778;48.236;9.894;2024-02-23T10:13:19;10.15;;;2.20;;
25988;SDS011;13778;48.236;9.894;2024-02-23T10:16:10;8.65;;;3.10;;
25988;SDS011;13778;48.236;9.894;2024-02-23T10:19:01;6.22;;;2.72;;
25988;SDS011;13778;48.236;9.894;2024-02-23T10:21:51;14.23;;;2.92;;
25988;SDS011;13778;48.236;9.894;2024-02-23T10:24:42;9.50;;;2.53;;
25988;SDS011;13778;48.236;9.894;2024-02-23T10:27:34;5.10;;;1.80;;
25988;SDS011;13778;48.236;9.894;2024-02-23T10:30:26;7.35;;;1.38;;
25988;SDS011;13778;48.236;9.894;2024-02-23T10:33:16;3.25;;;1.30;;
25988;SDS011;13778;48.236;9.894;2024-02-23T10:36:09;8.10;;;2.08;;
25988;SDS011;13778;48.236;9.894;2024-02-23T10:39:02;3.47;;;1.10;;
25988;SDS011;13778;48.236;9.894;2024-02-23T10:41:56;5.22;;;1.67;;
25988;SDS011;13778;48.236;9.894;2024-02-23T10:44:47;4.18;;;1.55;;
25988;SDS011;13778;48.236;9.894;2024-02-23T10:50:28;5.90;;;1.63;;
25988;SDS011;13778;48.236;9.894;2024-02-23T10:53:18;7.38;;;2.08;;
25988;SDS011;13778;48.236;9.894;2024-02-23T10:56:09;4.27;;;1.77;;
25988;SDS011;13778;48.236;9.894;2024-02-23T10:59:00;6.60;;;1.70;;
25988;SDS011;13778;48.236;9.894;2024-02-23T11:01:52;7.68;;;1.65;;
25988;SDS011;13778;48.236;9.894;2024-02-23T11:04:46;6.30;;;2.15;;
25988;SDS011;13778;48.236;9.894;2024-02-23T11:07:39;8.18;;;1.80;;
25988;SDS011;13778;48.236;9.894;2024-02-23T11:10:30;5.40;;;1.30;;
25988;SDS011;13778;48.236;9.894;2024-02-23T11:13:29;5.05;;;1.48;;
25988;SDS011;13778;48.236;9.894;2024-02-23T11:16:22;6.93;;;1.50;;
25988;SDS011;13778;48.236;9.894;2024-02-23T11:19:14;6.45;;;1.80;;
25988;SDS011;13778;48.236;9.894;2024-02-23T11:22:09;7.38;;;1.50;;
25988;SDS011;13778;48.236;9.894;2024-02-23T11:24:59;7.38;;;2.33;;
25988;SDS011;13778;48.236;9.894;2024-02-23T11:27:50;4.47;;;1.38;;
25988;SDS011;13778;48.236;9.894;2024-02-23T11:30:43;9.18;;;3.40;;
25988;SDS011;13778;48.236;9.894;2024-02-23T11:33:34;10.43;;;2.72;;
25988;SDS011;13778;48.236;9.894;2024-02-23T11:36:27;4.90;;;2.25;;
25988;SDS011;13778;48.236;9.894;2024-02-23T11:39:18;7.32;;;1.67;;
25988;SDS011;13778;48.236;9.894;2024-02-23T11:42:09;4.50;;;1.85;;
25988;SDS011;13778;48.236;9.894;2024-02-23T11:44:59;5.45;;;1.70;;
25988;SDS011;13778;48.236;9.894;2024-02-23T11:47:51;7.85;;;1.83;;
25988;SDS011;13778;48.236;9.894;2024-02-23T11:50:42;7.40;;;1.58;;
25988;SDS011;13778;48.236;9.894;2024-02-23T11:53:34;4.68;;;1.50;;
25988;SDS011;13778;48.236;9.894;2024-02-23T11:56:24;3.92;;;1.10;;
25988;SDS011;13778;48.236;9.894;2024-02-23T11:59:15;4.88;;;1.42;;
25988;SDS011;13778;48.236;9.894;2024-02-23T12:02:06;3.47;;;1.08;;
25988;SDS011;13778;48.236;9.894;2024-02-23T12:04:56;7.90;;;1.30;;
25988;SDS011;13778;48.236;9.894;2024-02-23T12:07:47;4.43;;;1.38;;
25988;SDS011;13778;48.236;9.894;2024-02-23T12:10:38;5.10;;;1.40;;
25988;SDS011;13778;48.236;9.894;2024-02-23T12:13:29;3.80;;;1.10;;
25988;SDS011;13778;48.236;9.894;2024-02-23T12:16:20;5.55;;;1.10;;
25988;SDS011;13778;48.236;9.894;2024-02-23T12:19:11;4.45;;;1.80;;
25988;SDS011;13778;48.236;9.894;2024-02-23T12:22:01;6.05;;;1.83;;
25988;SDS011;13778;48.236;9.894;2024-02-23T12:24:52;6.57;;;1.42;;
25988;SDS011;13778;48.236;9.894;2024-02-23T12:27:44;3.75;;;2.13;;
25988;SDS011;13778;48.236;9.894;2024-02-23T12:33:26;2.20;;;1.02;;
25988;SDS011;13778;48.236;9.894;2024-02-23T12:36:17;6.28;;;1.40;;
25988;SDS011;13778;48.236;9.894;2024-02-23T12:39:07;1.90;;;1.42;;
25988;SDS011;13778;48.236;9.894;2024-02-23T12:41:58;4.22;;;1.27;;
25988;SDS011;13778;48.236;9.894;2024-02-23T12:44:50;3.83;;;1.10;;
25988;SDS011;13778;48.236;9.894;2024-02-23T12:47:40;2.20;;;2.00;;
25988;SDS011;13778;48.236;9.894;2024-02-23T12:50:30;2.20;;;1.20;;
25988;SDS011;13778;48.236;9.894;2024-02-23T12:53:31;7.65;;;1.65;;
25988;SDS011;13778;48.236;9.894;2024-02-23T12:56:22;5.30;;;2.13;;
25988;SDS011;13778;48.236;9.894;2024-02-23T12:59:14;5.32;;;1.40;;
25988;SDS011;13778;48.236;9.894;2024-02-23T13:02:06;3.03;;;1.60;;
25988;SDS011;13778;48.236;9.894;2024-02-23T13:04:58;6.65;;;1.38;;
25988;SDS011;13778;48.236;9.894;2024-02-23T13:07:48;1.75;;;1.10;;
25988;SDS011;13778;48.236;9.894;2024-02-23T13:10:39;5.10;;;1.48;;
25988;SDS011;13778;48.236;9.894;2024-02-23T13:13:29;4.55;;;1.50;;
25988;SDS011;13778;48.236;9.894;2024-02-23T13:16:21;3.35;;;1.38;;
25988;SDS011;13778;48.236;9.894;2024-02-23T13:19:12;2.55;;;1.30;;
25988;SDS011;13778;48.236;9.894;2024-02-23T13:22:03;4.63;;;1.17;;
25988;SDS011;13778;48.236;9.894;2024-02-23T13:24:53;5.00;;;1.90;;
25988;SDS011;13778;48.236;9.894;2024-02-23T13:27:44;3.13;;;1.70;;
25988;SDS011;13778;48.236;9.894;2024-02-23T13:30:35;5.25;;;1.50;;
25988;SDS011;13778;48.236;9.894;2024-02-23T13:33:26;5.38;;;1.35;;
25988;SDS011;13778;48.236;9.894;2024-02-23T13:36:18;4.45;;;2.20;;
25988;SDS011;13778;48.236;9.894;2024-02-23T13:41:59;25.98;;;10.25;;
25988;SDS011;13778;48.236;9.894;2024-02-23T13:44:49;7.25;;;2.00;;
25988;SDS011;13778;48.236;9.894;2024-02-23T13:47:40;9.52;;;5.10;;
25988;SDS011;13778;48.236;9.894;2024-02-23T13:50:31;9.75;;;2.63;;
25988;SDS011;13778;48.236;9.894;2024-02-23T13:53:23;4.40;;;2.55;;
25988;SDS011;13778;48.236;9.894;2024-02-23T13:59:04;5.57;;;2.00;;
25988;SDS011;13778;48.236;9.894;2024-02-23T14:01:55;10.68;;;5.85;;
25988;SDS011;13778;48.236;9.894;2024-02-23T14:04:45;2.00;;;1.42;;
25988;SDS011;13778;48.236;9.894;2024-02-23T14:07:36;2.67;;;1.80;;
25988;SDS011;13778;48.236;9.894;2024-02-23T14:10:28;6.82;;;2.00;;
25988;SDS011;13778;48.236;9.894;2024-02-23T14:13:19;6.63;;;1.73;;
25988;SDS011;13778;48.236;9.894;2024-02-23T14:16:09;4.18;;;1.45;;
25988;SDS011;13778;48.236;9.894;2024-02-23T14:19:00;3.33;;;1.55;;
25988;SDS011;13778;48.236;9.894;2024-02-23T14:21:51;2.83;;;1.60;;
25988;SDS011;13778;48.236;9.894;2024-02-23T14:24:42;7.40;;;1.80;;
25988;SDS011;13778;48.236;9.894;2024-02-23T14:27:34;6.47;;;1.77;;
25988;SDS011;13778;48.236;9.894;2024-02-23T14:30:24;5.53;;;1.30;;
25988;SDS011;13778;48.236;9.894;2024-02-23T14:33:15;2.40;;;1.40;;
25988;SDS011;13778;48.236;9.894;2024-02-23T14:36:06;4.35;;;2.10;;
25988;SDS011;13778;48.236;9.894;2024-02-23T14:38:57;3.13;;;1.77;;
25988;SDS011;13778;48.236;9.894;2024-02-23T14:41:47;4.18;;;1.30;;
25988;SDS011;13778;48.236;9.894;2024-02-23T14:44:39;1.55;;;1.20;;
25988;SDS011;13778;48.236;9.894;2024-02-23T14:47:29;4.50;;;1.40;;
25988;SDS011;13778;48.236;9.894;2024-02-23T14:50:20;8.80;;;1.40;;
25988;SDS011;13778;48.236;9.894;2024-02-23T14:53:10;3.83;;;1.40;;
25988;SDS011;13778;48.236;9.894;2024-02-23T14:56:01;6.53;;;3.63;;
25988;SDS011;13778;48.236;9.894;2024-02-23T14:58:52;6.53;;;1.55;;
25988;SDS011;13778;48.236;9.894;2024-02-23T15:01:44;4.15;;;1.55;;
25988;SDS011;13778;48.236;9.894;2024-02-23T15:04:34;4.57;;;1.20;;
25988;SDS011;13778;48.236;9.894;2024-02-23T15:07:25;6.32;;;1.30;;
25988;SDS011;13778;48.236;9.894;2024-02-23T15:10:15;4.10;;;1.60;;
25988;SDS011;13778;48.236;9.894;2024-02-23T15:13:07;4.20;;;2.03;;
25988;SDS011;13778;48.236;9.894;2024-02-23T15:15:57;5.18;;;2.67;;
25988;SDS011;13778;48.236;9.894;2024-02-23T15:18:49;5.40;;;1.88;;
25988;SDS011;13778;48.236;9.894;2024-02-23T15:21:40;3.38;;;1.60;;
25988;SDS011;13778;48.236;9.894;2024-02-23T15:24:31;3.17;;;1.50;;
25988;SDS011;13778;48.236;9.894;2024-02-23T15:27:22;4.57;;;1.60;;
25988;SDS011;13778;48.236;9.894;2024-02-23T15:30:12;4.43;;;1.35;;
25988;SDS011;13778;48.236;9.894;2024-02-23T15:33:03;4.18;;;1.70;;
25988;SDS011;13778;48.236;9.894;2024-02-23T15:35:55;6.55;;;1.98;;
25988;SDS011;13778;48.236;9.894;2024-02-23T15:41:35;3.15;;;1.67;;
25988;SDS011;13778;48.236;9.894;2024-02-23T15:44:26;5.22;;;1.73;;
25988;SDS011;13778;48.236;9.894;2024-02-23T15:47:16;4.22;;;2.10;;
25988;SDS011;13778;48.236;9.894;2024-02-23T15:50:07;4.60;;;2.22;;
25988;SDS011;13778;48.236;9.894;2024-02-23T15:52:59;3.67;;;2.28;;
25988;SDS011;13778;48.236;9.894;2024-02-23T15:55:50;5.10;;;2.50;;
25988;SDS011;13778;48.236;9.894;2024-02-23T15:58:41;4.40;;;2.08;;
25988;SDS011;13778;48.236;9.894;2024-02-23T16:01:31;5.72;;;2.60;;
25988;SDS011;13778;48.236;9.894;2024-02-23T16:04:22;4.95;;;2.40;;
25988;SDS011;13778;48.236;9.894;2024-02-23T16:07:13;8.32;;;2.70;;
25988;SDS011;13778;48.236;9.894;2024-02-23T16:10:06;7.35;;;3.03;;
25988;SDS011;13778;48.236;9.894;2024-02-23T16:12:57;6.55;;;2.95;;
25988;SDS011;13778;48.236;9.894;2024-02-23T16:15:48;8.10;;;3.03;;
25988;SDS011;13778;48.236;9.894;2024-02-23T16:18:39;9.60;;;3.13;;
25988;SDS011;13778;48.236;9.894;2024-02-23T16:21:29;4.82;;;2.17;;
25988;SDS011;13778;48.236;9.894;2024-02-23T16:24:20;3.80;;;2.23;;
25988;SDS011;13778;48.236;9.894;2024-02-23T16:27:12;6.70;;;2.70;;
25988;SDS011;13778;48.236;9.894;2024-02-23T16:30:04;4.28;;;2.60;;
25988;SDS011;13778;48.236;9.894;2024-02-23T16:32:54;5.07;;;1.90;;
25988;SDS011;13778;48.236;9.894;2024-02-23T16:35:45;4.18;;;1.70;;
25988;SDS011;13778;48.236;9.894;2024-02-23T16:38:35;7.13;;;2.40;;
25988;SDS011;13778;48.236;9.894;2024-02-23T16:41:26;11.73;;;5.97;;
25988;SDS011;13778;48.236;9.894;2024-02-23T16:44:18;5.05;;;2.20;;
25988;SDS011;13778;48.236;9.894;2024-02-23T16:47:09;1.92;;;1.25;;
25988;SDS011;13778;48.236;9.894;2024-02-23T16:50:00;3.78;;;1.35;;
25988;SDS011;13778;48.236;9.894;2024-02-23T16:52:50;2.75;;;1.30;;
25988;SDS011;13778;48.236;9.894;2024-02-23T16:55:41;4.13;;;1.98;;
25988;SDS011;13778;48.236;9.894;2024-02-23T16:58:33;6.47;;;2.92;;
25988;SDS011;13778;48.236;9.894;2024-02-23T17:01:26;9.18;;;6.05;;
25988;SDS011;13778;48.236;9.894;2024-02-23T17:04:17;6.88;;;5.15;;
25988;SDS011;13778;48.236;9.894;2024-02-23T17:07:08;10.25;;;5.18;;
25988;SDS011;13778;48.236;9.894;2024-02-23T17:09:58;7.35;;;4.00;;
25988;SDS011;13778;48.236;9.894;2024-02-23T17:12:49;2.83;;;1.55;;
25988;SDS011;13778;48.236;9.894;2024-02-23T17:15:42;7.47;;;1.60;;
25988;SDS011;13778;48.236;9.894;2024-02-23T17:18:33;4.32;;;1.40;;
25988;SDS011;13778;48.236;9.894;2024-02-23T17:21:24;3.78;;;1.80;;
25988;SDS011;13778;48.236;9.894;2024-02-23T17:24:14;12.50;;;8.65;;
25988;SDS011;13778;48.236;9.894;2024-02-23T17:27:05;9.15;;;5.10;;
25988;SDS011;13778;48.236;9.894;2024-02-23T17:29:55;4.88;;;3.05;;
25988;SDS011;13778;48.236;9.894;2024-02-23T17:32:46;7.50;;;4.40;;
25988;SDS011;13778;48.236;9.894;2024-02-23T17:35:37;10.63;;;6.05;;
25988;SDS011;13778;48.236;9.894;2024-02-23T17:41:18;7.93;;;4.22;;
25988;SDS011;13778;48.236;9.894;2024-02-23T17:44:09;9.13;;;4.60;;
25988;SDS011;13778;48.236;9.894;2024-02-23T17:46:59;12.93;;;4.85;;
25988;SDS011;13778;48.236;9.894;2024-02-23T17:49:50;7.28;;;4.72;;
25988;SDS011;13778;48.236;9.894;2024-02-23T17:52:42;8.35;;;4.93;;
25988;SDS011;13778;48.236;9.894;2024-02-23T17:55:33;9.57;;;6.25;;
25988;SDS011;13778;48.236;9.894;2024-02-23T17:58:23;15.43;;;7.68;;
25988;SDS011;13778;48.236;9.894;2024-02-23T18:01:15;12.20;;;6.75;;